sensor_id;sensor_type;location;lat;lon;timestamp;P1;durP1;ratioP1;P2;durP2;ratioP2
57730;SDS011;43570;47.476;19.040;2022-12-07T00:01:33;27.15;;;21.10;;
57730;SDS011;43570;47.476;19.040;2022-12-07T00:04:00;22.23;;;19.58;;
57730;SDS011;43570;47.476;19.040;2022-12-07T00:06:36;25.62;;;20.35;;
57730;SDS011;43570;47.476;19.040;2022-12-07T00:09:03;22.98;;;20.35;;
57730;SDS011;43570;47.476;19.040;2022-12-07T00:11:30;25.25;;;21.75;;
57730;SDS011;43570;47.476;19.040;2022-12-07T00:13:57;24.02;;;20.25;;
57730;SDS011;43570;47.476;19.040;2022-12-07T00:16:24;22.75;;;20.00;;
57730;SDS011;43570;47.476;19.040;2022-12-07T00:18:52;25.58;;;20.33;;
57730;SDS011;43570;47.476;19.040;2022-12-07T00:21:18;24.27;;;20.60;;
57730;SDS011;43570;47.476;19.040;2022-12-07T00:23:48;24.20;;;19.52;;
57730;SDS011;43570;47.476;19.040;2022-12-07T00:26:16;23.30;;;20.83;;
57730;SDS011;43570;47.476;19.040;2022-12-07T00:28:46;26.55;;;21.35;;
57730;SDS011;43570;47.476;19.040;2022-12-07T00:31:12;24.40;;;21.23;;
57730;SDS011;43570;47.476;19.040;2022-12-07T00:33:39;25.02;;;21.12;;
57730;SDS011;43570;47.476;19.040;2022-12-07T00:36:08;26.27;;;21.75;;
57730;SDS011;43570;47.476;19.040;2022-12-07T00:38:35;24.85;;;21.92;;
57730;SDS011;43570;47.476;19.040;2022-12-07T00:41:03;25.35;;;21.35;;
57730;SDS011;43570;47.476;19.040;2022-12-07T00:43:30;25.40;;;20.73;;
57730;SDS011;43570;47.476;19.040;2022-12-07T00:45:56;25.52;;;21.33;;
57730;SDS011;43570;47.476;19.040;2022-12-07T00:48:22;25.02;;;21.45;;
57730;SDS011;43570;47.476;19.040;2022-12-07T00:50:47;25.65;;;20.88;;
57730;SDS011;43570;47.476;19.040;2022-12-07T00:53:13;25.92;;;22.13;;
57730;SDS011;43570;47.476;19.040;2022-12-07T00:55:39;24.50;;;20.95;;
57730;SDS011;43570;47.476;19.040;2022-12-07T00:58:04;23.90;;;21.25;;
57730;SDS011;43570;47.476;19.040;2022-12-07T01:00:29;22.83;;;20.33;;
57730;SDS011;43570;47.476;19.040;2022-12-07T01:02:55;21.80;;;19.50;;
57730;SDS011;43570;47.476;19.040;2022-12-07T01:05:21;23.83;;;20.98;;
57730;SDS011;43570;47.476;19.040;2022-12-07T01:07:46;23.38;;;20.92;;
57730;SDS011;43570;47.476;19.040;2022-12-07T01:10:11;24.83;;;21.40;;
57730;SDS011;43570;47.476;19.040;2022-12-07T01:12:37;21.37;;;19.15;;
57730;SDS011;43570;47.476;19.040;2022-12-07T01:15:03;22.15;;;19.15;;
57730;SDS011;43570;47.476;19.040;2022-12-07T01:17:29;22.30;;;18.87;;
57730;SDS011;43570;47.476;19.040;2022-12-07T01:19:54;22.40;;;18.85;;
57730;SDS011;43570;47.476;19.040;2022-12-07T01:22:20;22.75;;;19.25;;
57730;SDS011;43570;47.476;19.040;2022-12-07T01:24:45;21.95;;;19.60;;
57730;SDS011;43570;47.476;19.040;2022-12-07T01:27:11;23.35;;;20.85;;
57730;SDS011;43570;47.476;19.040;2022-12-07T01:29:37;23.50;;;20.98;;
57730;SDS011;43570;47.476;19.040;2022-12-07T01:32:02;24.17;;;21.23;;
57730;SDS011;43570;47.476;19.040;2022-12-07T01:34:28;23.77;;;20.67;;
57730;SDS011;43570;47.476;19.040;2022-12-07T01:36:53;24.52;;;21.73;;
57730;SDS011;43570;47.476;19.040;2022-12-07T01:39:18;26.25;;;21.20;;
57730;SDS011;43570;47.476;19.040;2022-12-07T01:41:44;23.77;;;21.27;;
57730;SDS011;43570;47.476;19.040;2022-12-07T01:44:25;25.50;;;20.95;;
57730;SDS011;43570;47.476;19.040;2022-12-07T01:46:52;23.17;;;20.27;;
57730;SDS011;43570;47.476;19.040;2022-12-07T01:49:31;24.10;;;20.70;;
57730;SDS011;43570;47.476;19.040;2022-12-07T01:52:07;24.87;;;21.05;;
57730;SDS011;43570;47.476;19.040;2022-12-07T01:54:35;23.38;;;19.27;;
57730;SDS011;43570;47.476;19.040;2022-12-07T01:57:01;24.25;;;19.98;;
57730;SDS011;43570;47.476;19.040;2022-12-07T01:59:26;22.75;;;19.95;;
57730;SDS011;43570;47.476;19.040;2022-12-07T02:01:53;24.02;;;19.85;;
57730;SDS011;43570;47.476;19.040;2022-12-07T02:04:19;22.70;;;19.15;;
57730;SDS011;43570;47.476;19.040;2022-12-07T02:06:46;22.15;;;19.80;;
57730;SDS011;43570;47.476;19.040;2022-12-07T02:09:11;21.65;;;19.35;;
57730;SDS011;43570;47.476;19.040;2022-12-07T02:11:37;22.48;;;19.62;;
57730;SDS011;43570;47.476;19.040;2022-12-07T02:14:03;22.87;;;19.35;;
57730;SDS011;43570;47.476;19.040;2022-12-07T02:16:34;22.45;;;20.12;;
57730;SDS011;43570;47.476;19.040;2022-12-07T02:19:56;22.73;;;18.83;;
57730;SDS011;43570;47.476;19.040;2022-12-07T02:24:51;21.98;;;19.48;;
57730;SDS011;43570;47.476;19.040;2022-12-07T02:30:16;20.73;;;17.40;;
57730;SDS011;43570;47.476;19.040;2022-12-07T02:32:57;20.67;;;18.25;;
57730;SDS011;43570;47.476;19.040;2022-12-07T02:35:28;20.95;;;18.12;;
57730;SDS011;43570;47.476;19.040;2022-12-07T02:38:02;20.58;;;17.90;;
57730;SDS011;43570;47.476;19.040;2022-12-07T02:40:35;20.10;;;17.98;;
57730;SDS011;43570;47.476;19.040;2022-12-07T02:43:07;19.73;;;17.67;;
57730;SDS011;43570;47.476;19.040;2022-12-07T02:45:35;19.08;;;17.02;;
57730;SDS011;43570;47.476;19.040;2022-12-07T02:48:02;19.60;;;17.00;;
57730;SDS011;43570;47.476;19.040;2022-12-07T02:50:27;19.62;;;17.60;;
57730;SDS011;43570;47.476;19.040;2022-12-07T02:52:53;20.67;;;18.45;;
57730;SDS011;43570;47.476;19.040;2022-12-07T02:55:19;18.85;;;16.73;;
57730;SDS011;43570;47.476;19.040;2022-12-07T02:57:59;20.30;;;17.52;;
57730;SDS011;43570;47.476;19.040;2022-12-07T03:00:40;20.02;;;17.70;;
57730;SDS011;43570;47.476;19.040;2022-12-07T03:03:28;21.42;;;18.27;;
57730;SDS011;43570;47.476;19.040;2022-12-07T03:05:58;19.92;;;17.83;;
57730;SDS011;43570;47.476;19.040;2022-12-07T03:08:57;19.25;;;17.15;;
57730;SDS011;43570;47.476;19.040;2022-12-07T03:11:38;20.83;;;17.17;;
57730;SDS011;43570;47.476;19.040;2022-12-07T03:14:21;18.25;;;15.75;;
57730;SDS011;43570;47.476;19.040;2022-12-07T03:17:01;19.45;;;16.98;;
57730;SDS011;43570;47.476;19.040;2022-12-07T03:19:31;18.33;;;16.25;;
57730;SDS011;43570;47.476;19.040;2022-12-07T03:22:00;19.85;;;17.40;;
57730;SDS011;43570;47.476;19.040;2022-12-07T03:24:29;21.70;;;19.45;;
57730;SDS011;43570;47.476;19.040;2022-12-07T03:27:09;22.73;;;19.77;;
57730;SDS011;43570;47.476;19.040;2022-12-07T03:29:41;21.87;;;19.65;;
57730;SDS011;43570;47.476;19.040;2022-12-07T03:32:15;22.67;;;20.20;;
57730;SDS011;43570;47.476;19.040;2022-12-07T03:34:54;21.60;;;19.30;;
57730;SDS011;43570;47.476;19.040;2022-12-07T03:40:05;23.40;;;20.08;;
57730;SDS011;43570;47.476;19.040;2022-12-07T03:42:52;21.80;;;19.55;;
57730;SDS011;43570;47.476;19.040;2022-12-07T03:45:19;22.62;;;20.20;;
57730;SDS011;43570;47.476;19.040;2022-12-07T03:50:50;20.27;;;18.17;;
57730;SDS011;43570;47.476;19.040;2022-12-07T03:53:20;20.62;;;17.95;;
57730;SDS011;43570;47.476;19.040;2022-12-07T03:55:49;21.90;;;17.45;;
57730;SDS011;43570;47.476;19.040;2022-12-07T03:58:17;18.33;;;16.37;;
57730;SDS011;43570;47.476;19.040;2022-12-07T04:00:44;20.02;;;17.52;;
57730;SDS011;43570;47.476;19.040;2022-12-07T04:03:10;18.52;;;16.42;;
57730;SDS011;43570;47.476;19.040;2022-12-07T04:05:36;19.85;;;17.58;;
57730;SDS011;43570;47.476;19.040;2022-12-07T04:08:02;18.37;;;16.48;;
57730;SDS011;43570;47.476;19.040;2022-12-07T04:10:28;19.73;;;17.23;;
57730;SDS011;43570;47.476;19.040;2022-12-07T04:12:53;18.15;;;16.25;;
57730;SDS011;43570;47.476;19.040;2022-12-07T04:15:19;19.80;;;17.65;;
57730;SDS011;43570;47.476;19.040;2022-12-07T04:17:44;20.00;;;17.90;;
57730;SDS011;43570;47.476;19.040;2022-12-07T04:20:09;18.50;;;15.90;;
57730;SDS011;43570;47.476;19.040;2022-12-07T04:22:35;18.48;;;16.55;;
57730;SDS011;43570;47.476;19.040;2022-12-07T04:25:01;20.67;;;17.50;;
57730;SDS011;43570;47.476;19.040;2022-12-07T04:27:27;20.08;;;17.67;;
57730;SDS011;43570;47.476;19.040;2022-12-07T04:29:52;19.23;;;17.25;;
57730;SDS011;43570;47.476;19.040;2022-12-07T04:32:18;18.73;;;16.65;;
57730;SDS011;43570;47.476;19.040;2022-12-07T04:34:43;18.95;;;16.90;;
57730;SDS011;43570;47.476;19.040;2022-12-07T04:37:09;19.62;;;17.10;;
57730;SDS011;43570;47.476;19.040;2022-12-07T04:39:34;18.90;;;16.90;;
57730;SDS011;43570;47.476;19.040;2022-12-07T04:42:00;18.33;;;16.23;;
57730;SDS011;43570;47.476;19.040;2022-12-07T04:44:26;19.42;;;17.23;;
57730;SDS011;43570;47.476;19.040;2022-12-07T04:46:52;22.50;;;20.10;;
57730;SDS011;43570;47.476;19.040;2022-12-07T04:49:18;22.27;;;19.75;;
57730;SDS011;43570;47.476;19.040;2022-12-07T04:51:44;24.58;;;21.95;;
57730;SDS011;43570;47.476;19.040;2022-12-07T04:54:09;25.58;;;22.92;;
57730;SDS011;43570;47.476;19.040;2022-12-07T04:56:35;26.02;;;23.20;;
57730;SDS011;43570;47.476;19.040;2022-12-07T04:59:01;27.13;;;24.23;;
57730;SDS011;43570;47.476;19.040;2022-12-07T05:01:27;28.10;;;25.10;;
57730;SDS011;43570;47.476;19.040;2022-12-07T05:03:53;29.98;;;26.83;;
57730;SDS011;43570;47.476;19.040;2022-12-07T05:06:18;30.48;;;27.33;;
57730;SDS011;43570;47.476;19.040;2022-12-07T05:08:44;28.83;;;25.77;;
57730;SDS011;43570;47.476;19.040;2022-12-07T05:11:09;30.88;;;27.67;;
57730;SDS011;43570;47.476;19.040;2022-12-07T05:13:56;32.67;;;29.25;;
57730;SDS011;43570;47.476;19.040;2022-12-07T05:16:21;32.00;;;28.70;;
57730;SDS011;43570;47.476;19.040;2022-12-07T05:18:46;32.25;;;28.83;;
57730;SDS011;43570;47.476;19.040;2022-12-07T05:21:12;34.90;;;31.15;;
57730;SDS011;43570;47.476;19.040;2022-12-07T05:23:37;33.67;;;30.27;;
57730;SDS011;43570;47.476;19.040;2022-12-07T05:26:03;35.30;;;31.65;;
57730;SDS011;43570;47.476;19.040;2022-12-07T05:28:28;35.50;;;31.80;;
57730;SDS011;43570;47.476;19.040;2022-12-07T05:30:53;25.50;;;22.95;;
57730;SDS011;43570;47.476;19.040;2022-12-07T05:33:19;29.02;;;25.65;;
57730;SDS011;43570;47.476;19.040;2022-12-07T05:35:44;25.25;;;22.50;;
57730;SDS011;43570;47.476;19.040;2022-12-07T05:38:09;26.85;;;24.05;;
57730;SDS011;43570;47.476;19.040;2022-12-07T05:40:36;28.92;;;25.77;;
57730;SDS011;43570;47.476;19.040;2022-12-07T05:43:01;28.50;;;25.52;;
57730;SDS011;43570;47.476;19.040;2022-12-07T05:45:27;33.67;;;29.10;;
57730;SDS011;43570;47.476;19.040;2022-12-07T05:47:52;33.53;;;30.05;;
57730;SDS011;43570;47.476;19.040;2022-12-07T05:50:18;34.95;;;31.35;;
57730;SDS011;43570;47.476;19.040;2022-12-07T05:52:43;34.60;;;31.05;;
57730;SDS011;43570;47.476;19.040;2022-12-07T05:55:08;37.17;;;33.13;;
57730;SDS011;43570;47.476;19.040;2022-12-07T05:57:34;37.83;;;33.90;;
57730;SDS011;43570;47.476;19.040;2022-12-07T05:59:59;41.03;;;36.53;;
57730;SDS011;43570;47.476;19.040;2022-12-07T06:02:24;43.53;;;36.83;;
57730;SDS011;43570;47.476;19.040;2022-12-07T06:04:50;40.75;;;36.47;;
57730;SDS011;43570;47.476;19.040;2022-12-07T06:07:15;42.85;;;38.58;;
57730;SDS011;43570;47.476;19.040;2022-12-07T06:09:41;42.08;;;37.58;;
57730;SDS011;43570;47.476;19.040;2022-12-07T06:12:06;41.90;;;37.50;;
57730;SDS011;43570;47.476;19.040;2022-12-07T06:14:55;44.28;;;39.63;;
57730;SDS011;43570;47.476;19.040;2022-12-07T06:17:21;44.38;;;39.65;;
57730;SDS011;43570;47.476;19.040;2022-12-07T06:19:46;45.00;;;40.08;;
57730;SDS011;43570;47.476;19.040;2022-12-07T06:22:12;46.55;;;41.55;;
57730;SDS011;43570;47.476;19.040;2022-12-07T06:24:37;48.80;;;43.55;;
57730;SDS011;43570;47.476;19.040;2022-12-07T06:27:03;50.80;;;45.28;;
57730;SDS011;43570;47.476;19.040;2022-12-07T06:29:29;42.97;;;38.28;;
57730;SDS011;43570;47.476;19.040;2022-12-07T06:31:55;41.67;;;37.33;;
57730;SDS011;43570;47.476;19.040;2022-12-07T06:34:21;34.97;;;31.17;;
57730;SDS011;43570;47.476;19.040;2022-12-07T06:36:50;29.00;;;26.00;;
57730;SDS011;43570;47.476;19.040;2022-12-07T06:39:20;33.95;;;29.23;;
57730;SDS011;43570;47.476;19.040;2022-12-07T06:41:46;31.05;;;27.73;;
57730;SDS011;43570;47.476;19.040;2022-12-07T06:44:12;26.37;;;23.75;;
57730;SDS011;43570;47.476;19.040;2022-12-07T06:46:37;27.55;;;24.70;;
57730;SDS011;43570;47.476;19.040;2022-12-07T06:49:03;26.20;;;23.50;;
57730;SDS011;43570;47.476;19.040;2022-12-07T06:51:30;23.25;;;20.80;;
57730;SDS011;43570;47.476;19.040;2022-12-07T06:53:55;25.35;;;22.65;;
57730;SDS011;43570;47.476;19.040;2022-12-07T06:56:21;26.92;;;23.17;;
57730;SDS011;43570;47.476;19.040;2022-12-07T06:58:47;26.27;;;23.48;;
57730;SDS011;43570;47.476;19.040;2022-12-07T07:01:14;26.00;;;23.35;;
57730;SDS011;43570;47.476;19.040;2022-12-07T07:03:41;27.85;;;24.90;;
57730;SDS011;43570;47.476;19.040;2022-12-07T07:06:06;28.10;;;25.10;;
57730;SDS011;43570;47.476;19.040;2022-12-07T07:08:32;26.27;;;23.58;;
57730;SDS011;43570;47.476;19.040;2022-12-07T07:10:58;26.98;;;24.08;;
57730;SDS011;43570;47.476;19.040;2022-12-07T07:13:24;28.80;;;25.75;;
57730;SDS011;43570;47.476;19.040;2022-12-07T07:15:49;29.63;;;26.62;;
57730;SDS011;43570;47.476;19.040;2022-12-07T07:18:14;28.20;;;25.35;;
57730;SDS011;43570;47.476;19.040;2022-12-07T07:20:40;30.10;;;25.35;;
57730;SDS011;43570;47.476;19.040;2022-12-07T07:23:05;27.17;;;24.48;;
57730;SDS011;43570;47.476;19.040;2022-12-07T07:25:32;26.27;;;23.58;;
57730;SDS011;43570;47.476;19.040;2022-12-07T07:27:57;26.90;;;23.98;;
57730;SDS011;43570;47.476;19.040;2022-12-07T07:30:23;33.40;;;29.42;;
57730;SDS011;43570;47.476;19.040;2022-12-07T07:32:48;27.58;;;23.23;;
57730;SDS011;43570;47.476;19.040;2022-12-07T07:35:14;27.35;;;23.35;;
57730;SDS011;43570;47.476;19.040;2022-12-07T07:37:40;24.83;;;22.10;;
57730;SDS011;43570;47.476;19.040;2022-12-07T07:40:06;24.50;;;21.90;;
57730;SDS011;43570;47.476;19.040;2022-12-07T07:42:32;23.98;;;21.35;;
57730;SDS011;43570;47.476;19.040;2022-12-07T07:44:57;24.37;;;21.20;;
57730;SDS011;43570;47.476;19.040;2022-12-07T07:47:22;22.95;;;20.55;;
57730;SDS011;43570;47.476;19.040;2022-12-07T07:49:48;26.52;;;21.45;;
57730;SDS011;43570;47.476;19.040;2022-12-07T07:52:13;22.95;;;20.55;;
57730;SDS011;43570;47.476;19.040;2022-12-07T07:54:38;23.45;;;20.25;;
57730;SDS011;43570;47.476;19.040;2022-12-07T07:57:04;25.12;;;22.15;;
57730;SDS011;43570;47.476;19.040;2022-12-07T07:59:29;25.00;;;22.40;;
57730;SDS011;43570;47.476;19.040;2022-12-07T08:01:55;26.30;;;23.23;;
57730;SDS011;43570;47.476;19.040;2022-12-07T08:04:20;25.30;;;22.80;;
57730;SDS011;43570;47.476;19.040;2022-12-07T08:06:45;26.25;;;23.45;;
57730;SDS011;43570;47.476;19.040;2022-12-07T08:09:11;27.90;;;24.15;;
57730;SDS011;43570;47.476;19.040;2022-12-07T08:11:37;26.60;;;23.73;;
57730;SDS011;43570;47.476;19.040;2022-12-07T08:14:02;25.40;;;22.62;;
57730;SDS011;43570;47.476;19.040;2022-12-07T08:16:28;25.20;;;22.37;;
57730;SDS011;43570;47.476;19.040;2022-12-07T08:18:53;26.60;;;21.85;;
57730;SDS011;43570;47.476;19.040;2022-12-07T08:21:19;24.27;;;21.77;;
57730;SDS011;43570;47.476;19.040;2022-12-07T08:23:44;25.15;;;22.08;;
57730;SDS011;43570;47.476;19.040;2022-12-07T08:26:11;25.00;;;22.30;;
57730;SDS011;43570;47.476;19.040;2022-12-07T08:28:38;24.65;;;22.10;;
57730;SDS011;43570;47.476;19.040;2022-12-07T08:31:07;24.40;;;21.80;;
57730;SDS011;43570;47.476;19.040;2022-12-07T08:33:35;23.62;;;21.12;;
57730;SDS011;43570;47.476;19.040;2022-12-07T08:36:05;24.70;;;22.13;;
57730;SDS011;43570;47.476;19.040;2022-12-07T08:38:33;24.25;;;21.70;;
57730;SDS011;43570;47.476;19.040;2022-12-07T08:40:59;24.42;;;21.83;;
57730;SDS011;43570;47.476;19.040;2022-12-07T08:43:24;23.75;;;21.25;;
57730;SDS011;43570;47.476;19.040;2022-12-07T08:45:53;25.30;;;22.05;;
57730;SDS011;43570;47.476;19.040;2022-12-07T08:48:30;24.10;;;21.35;;
57730;SDS011;43570;47.476;19.040;2022-12-07T08:50:55;23.73;;;21.17;;
57730;SDS011;43570;47.476;19.040;2022-12-07T08:53:21;26.20;;;21.45;;
57730;SDS011;43570;47.476;19.040;2022-12-07T08:55:46;25.58;;;22.02;;
57730;SDS011;43570;47.476;19.040;2022-12-07T08:58:13;23.30;;;19.48;;
57730;SDS011;43570;47.476;19.040;2022-12-07T09:00:38;23.67;;;21.12;;
57730;SDS011;43570;47.476;19.040;2022-12-07T09:03:04;23.12;;;20.40;;
57730;SDS011;43570;47.476;19.040;2022-12-07T09:05:29;21.27;;;18.98;;
57730;SDS011;43570;47.476;19.040;2022-12-07T09:07:55;21.90;;;19.62;;
57730;SDS011;43570;47.476;19.040;2022-12-07T09:10:22;22.15;;;19.52;;
57730;SDS011;43570;47.476;19.040;2022-12-07T09:12:48;21.90;;;18.40;;
57730;SDS011;43570;47.476;19.040;2022-12-07T09:15:14;22.45;;;18.27;;
57730;SDS011;43570;47.476;19.040;2022-12-07T09:17:39;20.42;;;18.33;;
57730;SDS011;43570;47.476;19.040;2022-12-07T09:20:05;19.90;;;17.52;;
57730;SDS011;43570;47.476;19.040;2022-12-07T09:22:31;18.80;;;16.67;;
57730;SDS011;43570;47.476;19.040;2022-12-07T09:24:57;19.10;;;17.10;;
57730;SDS011;43570;47.476;19.040;2022-12-07T09:27:23;17.62;;;15.82;;
57730;SDS011;43570;47.476;19.040;2022-12-07T09:29:49;17.65;;;15.82;;
57730;SDS011;43570;47.476;19.040;2022-12-07T09:32:14;21.83;;;16.20;;
57730;SDS011;43570;47.476;19.040;2022-12-07T09:34:39;18.40;;;16.50;;
57730;SDS011;43570;47.476;19.040;2022-12-07T09:37:05;19.10;;;16.37;;
57730;SDS011;43570;47.476;19.040;2022-12-07T09:39:31;17.25;;;15.45;;
57730;SDS011;43570;47.476;19.040;2022-12-07T09:41:56;18.62;;;16.30;;
57730;SDS011;43570;47.476;19.040;2022-12-07T09:44:23;18.85;;;15.88;;
57730;SDS011;43570;47.476;19.040;2022-12-07T09:46:50;13.80;;;12.00;;
57730;SDS011;43570;47.476;19.040;2022-12-07T09:49:18;11.85;;;10.50;;
57730;SDS011;43570;47.476;19.040;2022-12-07T09:51:45;12.05;;;10.80;;
57730;SDS011;43570;47.476;19.040;2022-12-07T09:54:14;10.55;;;8.95;;
57730;SDS011;43570;47.476;19.040;2022-12-07T09:56:41;12.45;;;9.35;;
57730;SDS011;43570;47.476;19.040;2022-12-07T09:59:12;10.52;;;8.88;;
57730;SDS011;43570;47.476;19.040;2022-12-07T10:01:40;10.77;;;9.23;;
57730;SDS011;43570;47.476;19.040;2022-12-07T10:04:14;12.07;;;10.73;;
57730;SDS011;43570;47.476;19.040;2022-12-07T10:06:41;9.82;;;8.82;;
57730;SDS011;43570;47.476;19.040;2022-12-07T10:09:13;10.15;;;8.45;;
57730;SDS011;43570;47.476;19.040;2022-12-07T10:12:00;10.65;;;8.88;;
57730;SDS011;43570;47.476;19.040;2022-12-07T10:14:37;12.00;;;10.52;;
57730;SDS011;43570;47.476;19.040;2022-12-07T10:19:51;12.05;;;10.77;;
57730;SDS011;43570;47.476;19.040;2022-12-07T10:22:17;12.00;;;10.70;;
57730;SDS011;43570;47.476;19.040;2022-12-07T10:24:44;14.50;;;12.07;;
57730;SDS011;43570;47.476;19.040;2022-12-07T10:27:18;15.63;;;13.00;;
57730;SDS011;43570;47.476;19.040;2022-12-07T10:29:47;15.50;;;12.00;;
57730;SDS011;43570;47.476;19.040;2022-12-07T10:34:39;12.95;;;11.12;;
57730;SDS011;43570;47.476;19.040;2022-12-07T10:39:40;16.92;;;11.10;;
57730;SDS011;43570;47.476;19.040;2022-12-07T10:42:29;10.93;;;8.88;;
57730;SDS011;43570;47.476;19.040;2022-12-07T10:45:30;12.02;;;9.20;;
57730;SDS011;43570;47.476;19.040;2022-12-07T10:48:10;9.68;;;7.85;;
57730;SDS011;43570;47.476;19.040;2022-12-07T11:04:35;10.57;;;8.88;;
57730;SDS011;43570;47.476;19.040;2022-12-07T11:12:28;10.57;;;8.88;;
57730;SDS011;43570;47.476;19.040;2022-12-07T11:25:57;11.02;;;9.55;;
57730;SDS011;43570;47.476;19.040;2022-12-07T11:31:22;10.77;;;9.20;;
57730;SDS011;43570;47.476;19.040;2022-12-07T11:36:36;13.20;;;10.05;;
57730;SDS011;43570;47.476;19.040;2022-12-07T11:39:05;11.82;;;9.70;;
57730;SDS011;43570;47.476;19.040;2022-12-07T11:41:41;14.80;;;10.73;;
57730;SDS011;43570;47.476;19.040;2022-12-07T11:44:08;12.55;;;9.77;;
57730;SDS011;43570;47.476;19.040;2022-12-07T11:49:54;13.73;;;9.73;;
57730;SDS011;43570;47.476;19.040;2022-12-07T11:55:05;13.30;;;9.50;;
57730;SDS011;43570;47.476;19.040;2022-12-07T11:57:43;13.45;;;9.52;;
57730;SDS011;43570;47.476;19.040;2022-12-07T12:00:17;12.33;;;11.03;;
57730;SDS011;43570;47.476;19.040;2022-12-07T12:02:55;16.15;;;12.85;;
57730;SDS011;43570;47.476;19.040;2022-12-07T12:05:25;12.07;;;10.35;;
57730;SDS011;43570;47.476;19.040;2022-12-07T12:07:53;10.85;;;9.75;;
57730;SDS011;43570;47.476;19.040;2022-12-07T12:13:27;11.25;;;9.32;;
57730;SDS011;43570;47.476;19.040;2022-12-07T12:16:12;10.70;;;9.60;;
57730;SDS011;43570;47.476;19.040;2022-12-07T12:21:14;11.23;;;8.95;;
57730;SDS011;43570;47.476;19.040;2022-12-07T12:26:31;10.05;;;8.50;;
57730;SDS011;43570;47.476;19.040;2022-12-07T12:28:58;8.90;;;8.00;;
57730;SDS011;43570;47.476;19.040;2022-12-07T12:33:51;9.93;;;8.30;;
57730;SDS011;43570;47.476;19.040;2022-12-07T12:51:56;8.95;;;8.05;;
57730;SDS011;43570;47.476;19.040;2022-12-07T12:54:26;12.05;;;8.68;;
57730;SDS011;43570;47.476;19.040;2022-12-07T12:59:31;11.52;;;9.90;;
57730;SDS011;43570;47.476;19.040;2022-12-07T13:04:28;11.38;;;10.10;;
57730;SDS011;43570;47.476;19.040;2022-12-07T13:12:01;12.27;;;10.00;;
57730;SDS011;43570;47.476;19.040;2022-12-07T13:14:40;12.75;;;10.52;;
57730;SDS011;43570;47.476;19.040;2022-12-07T13:17:10;13.80;;;10.18;;
57730;SDS011;43570;47.476;19.040;2022-12-07T13:27:59;9.80;;;8.75;;
57730;SDS011;43570;47.476;19.040;2022-12-07T13:32:56;9.57;;;8.02;;
57730;SDS011;43570;47.476;19.040;2022-12-07T13:37:58;10.95;;;8.45;;
57730;SDS011;43570;47.476;19.040;2022-12-07T13:40:24;10.20;;;8.95;;
57730;SDS011;43570;47.476;19.040;2022-12-07T13:43:02;11.38;;;9.68;;
57730;SDS011;43570;47.476;19.040;2022-12-07T13:45:30;10.18;;;9.02;;
57730;SDS011;43570;47.476;19.040;2022-12-07T13:48:32;10.38;;;8.68;;
57730;SDS011;43570;47.476;19.040;2022-12-07T13:51:01;10.85;;;8.90;;
57730;SDS011;43570;47.476;19.040;2022-12-07T13:53:28;12.85;;;10.00;;
57730;SDS011;43570;47.476;19.040;2022-12-07T13:55:55;12.32;;;9.48;;
57730;SDS011;43570;47.476;19.040;2022-12-07T13:58:24;12.70;;;9.30;;
57730;SDS011;43570;47.476;19.040;2022-12-07T14:00:50;12.65;;;10.35;;
57730;SDS011;43570;47.476;19.040;2022-12-07T14:05:42;12.88;;;10.13;;
57730;SDS011;43570;47.476;19.040;2022-12-07T14:10:38;14.13;;;10.23;;
57730;SDS011;43570;47.476;19.040;2022-12-07T14:13:56;13.88;;;10.60;;
57730;SDS011;43570;47.476;19.040;2022-12-07T14:16:17;13.52;;;10.15;;
57730;SDS011;43570;47.476;19.040;2022-12-07T14:18:49;13.88;;;10.90;;
57730;SDS011;43570;47.476;19.040;2022-12-07T14:24:09;12.82;;;11.27;;
57730;SDS011;43570;47.476;19.040;2022-12-07T14:26:43;13.23;;;10.88;;
57730;SDS011;43570;47.476;19.040;2022-12-07T14:29:27;13.65;;;10.95;;
57730;SDS011;43570;47.476;19.040;2022-12-07T14:31:57;14.25;;;11.00;;
57730;SDS011;43570;47.476;19.040;2022-12-07T14:34:24;13.25;;;11.20;;
57730;SDS011;43570;47.476;19.040;2022-12-07T14:36:49;15.23;;;11.95;;
57730;SDS011;43570;47.476;19.040;2022-12-07T14:39:15;13.15;;;11.23;;
57730;SDS011;43570;47.476;19.040;2022-12-07T14:41:40;15.85;;;12.10;;
57730;SDS011;43570;47.476;19.040;2022-12-07T14:44:22;14.85;;;12.70;;
57730;SDS011;43570;47.476;19.040;2022-12-07T14:46:49;17.62;;;14.32;;
57730;SDS011;43570;47.476;19.040;2022-12-07T14:49:15;16.25;;;12.50;;
57730;SDS011;43570;47.476;19.040;2022-12-07T14:51:40;18.52;;;15.05;;
57730;SDS011;43570;47.476;19.040;2022-12-07T14:54:07;19.10;;;15.80;;
57730;SDS011;43570;47.476;19.040;2022-12-07T14:56:39;17.25;;;13.30;;
57730;SDS011;43570;47.476;19.040;2022-12-07T14:59:04;17.40;;;13.57;;
57730;SDS011;43570;47.476;19.040;2022-12-07T15:01:30;19.05;;;14.10;;
57730;SDS011;43570;47.476;19.040;2022-12-07T15:03:55;16.52;;;13.77;;
57730;SDS011;43570;47.476;19.040;2022-12-07T15:06:21;17.65;;;13.43;;
57730;SDS011;43570;47.476;19.040;2022-12-07T15:08:46;16.02;;;13.80;;
57730;SDS011;43570;47.476;19.040;2022-12-07T15:11:15;16.00;;;12.93;;
57730;SDS011;43570;47.476;19.040;2022-12-07T15:13:41;16.30;;;13.05;;
57730;SDS011;43570;47.476;19.040;2022-12-07T15:16:24;25.10;;;18.52;;
57730;SDS011;43570;47.476;19.040;2022-12-07T15:18:50;16.05;;;12.88;;
57730;SDS011;43570;47.476;19.040;2022-12-07T15:21:16;24.17;;;15.80;;
57730;SDS011;43570;47.476;19.040;2022-12-07T15:23:42;18.55;;;15.48;;
57730;SDS011;43570;47.476;19.040;2022-12-07T15:26:07;19.33;;;14.15;;
57730;SDS011;43570;47.476;19.040;2022-12-07T15:28:35;18.77;;;15.10;;
57730;SDS011;43570;47.476;19.040;2022-12-07T15:31:00;20.33;;;17.55;;
57730;SDS011;43570;47.476;19.040;2022-12-07T15:33:25;19.35;;;14.45;;
57730;SDS011;43570;47.476;19.040;2022-12-07T15:35:51;20.33;;;15.23;;
57730;SDS011;43570;47.476;19.040;2022-12-07T15:38:16;21.58;;;15.13;;
57730;SDS011;43570;47.476;19.040;2022-12-07T15:40:41;17.27;;;14.02;;
57730;SDS011;43570;47.476;19.040;2022-12-07T15:43:10;21.92;;;14.27;;
57730;SDS011;43570;47.476;19.040;2022-12-07T15:45:55;16.87;;;12.85;;
57730;SDS011;43570;47.476;19.040;2022-12-07T15:48:21;19.62;;;14.27;;
57730;SDS011;43570;47.476;19.040;2022-12-07T15:50:46;16.50;;;14.07;;
57730;SDS011;43570;47.476;19.040;2022-12-07T15:53:11;15.45;;;13.70;;
57730;SDS011;43570;47.476;19.040;2022-12-07T15:55:40;17.30;;;14.27;;
57730;SDS011;43570;47.476;19.040;2022-12-07T15:58:05;22.23;;;16.95;;
57730;SDS011;43570;47.476;19.040;2022-12-07T16:00:31;22.33;;;16.33;;
57730;SDS011;43570;47.476;19.040;2022-12-07T16:02:57;18.40;;;14.93;;
57730;SDS011;43570;47.476;19.040;2022-12-07T16:05:22;18.75;;;13.45;;
57730;SDS011;43570;47.476;19.040;2022-12-07T16:07:47;19.70;;;15.63;;
57730;SDS011;43570;47.476;19.040;2022-12-07T16:10:13;26.98;;;18.23;;
57730;SDS011;43570;47.476;19.040;2022-12-07T16:12:38;23.05;;;17.12;;
57730;SDS011;43570;47.476;19.040;2022-12-07T16:15:04;23.62;;;16.50;;
57730;SDS011;43570;47.476;19.040;2022-12-07T16:17:29;22.48;;;15.35;;